createdAt,value
2022-12-29T00:01:04.340Z,97601.91
2022-12-29T00:03:31.082Z,97609.88
2022-12-29T00:05:58.769Z,97589.06
2022-12-29T00:08:40.809Z,97586.59
2022-12-29T00:11:09.744Z,97591.03
2022-12-29T00:13:55.565Z,97603.41
2022-12-29T00:16:22.356Z,97595.44
2022-12-29T00:18:50.295Z,97587.50
2022-12-29T00:21:40.759Z,97582.09
2022-12-29T00:24:28.696Z,97577.47
2022-12-29T00:27:29.450Z,97575.72
2022-12-29T00:30:14.846Z,97567.09
2022-12-29T00:33:00.371Z,97574.00
2022-12-29T00:35:33.761Z,97558.38
2022-12-29T00:38:23.520Z,97562.84
2022-12-29T00:41:08.907Z,97534.91
2022-12-29T00:43:53.918Z,97541.09
2022-12-29T00:46:20.679Z,97535.00
2022-12-29T00:49:06.293Z,97523.81
2022-12-29T00:51:32.930Z,97524.94
2022-12-29T00:53:59.670Z,97526.75
2022-12-29T00:56:26.258Z,97524.16
2022-12-29T00:58:54.187Z,97517.97
2022-12-29T01:01:20.919Z,97526.06
2022-12-29T01:03:47.574Z,97512.81
2022-12-29T01:06:14.241Z,97527.06
2022-12-29T01:08:40.833Z,97520.06
2022-12-29T01:11:10.814Z,97534.88
2022-12-29T01:13:42.261Z,97534.25
2022-12-29T01:16:08.840Z,97534.28
2022-12-29T01:18:44.451Z,97549.16
2022-12-29T01:21:10.933Z,97534.44
2022-12-29T01:23:37.492Z,97537.88
2022-12-29T01:26:13.752Z,97529.41
2022-12-29T01:28:43.333Z,97540.56
2022-12-29T01:31:11.329Z,97562.25
2022-12-29T01:33:37.956Z,97560.63
2022-12-29T01:36:06.405Z,97569.13
2022-12-29T01:38:34.590Z,97561.97
2022-12-29T01:41:12.670Z,97572.38
2022-12-29T01:43:57.569Z,97574.81
2022-12-29T01:46:41.867Z,97570.38
2022-12-29T01:49:25.171Z,97570.16
2022-12-29T01:51:56.795Z,97566.84
2022-12-29T01:54:31.644Z,97571.28
2022-12-29T01:57:02.622Z,97568.63
2022-12-29T01:59:40.105Z,97570.53
2022-12-29T02:02:08.531Z,97558.63
2022-12-29T02:04:41.278Z,97559.47
2022-12-29T02:07:15.442Z,97544.78
2022-12-29T02:09:43.550Z,97548.25
2022-12-29T02:12:10.766Z,97555.97
2022-12-29T02:14:42.618Z,97540.06
2022-12-29T02:17:33.963Z,97536.63
2022-12-29T02:20:38.822Z,97539.13
2022-12-29T02:23:17.496Z,97521.94
2022-12-29T02:26:17.800Z,97531.63
2022-12-29T02:29:19.235Z,97512.22
2022-12-29T02:32:09.388Z,97506.41
2022-12-29T02:34:48.480Z,97504.03
2022-12-29T02:37:25.945Z,97498.13
2022-12-29T02:40:07.237Z,97511.41
2022-12-29T02:42:48.220Z,97502.94
2022-12-29T02:45:33.828Z,97486.53
2022-12-29T02:48:19.263Z,97481.19
2022-12-29T02:50:56.936Z,97484.09
2022-12-29T02:53:44.988Z,97474.59
2022-12-29T02:56:11.585Z,97461.59
2022-12-29T02:58:38.150Z,97484.41
2022-12-29T03:01:28.889Z,97487.78
2022-12-29T03:04:14.353Z,97487.88
2022-12-29T03:07:10.274Z,97495.75
2022-12-29T03:10:06.595Z,97496.53
2022-12-29T03:13:07.288Z,97490.75
2022-12-29T03:16:06.682Z,97478.31
2022-12-29T03:19:05.749Z,97485.31
2022-12-29T03:21:59.444Z,97476.56
2022-12-29T03:24:33.778Z,97473.81
2022-12-29T03:27:06.041Z,97493.78
2022-12-29T03:29:37.664Z,97455.88
2022-12-29T03:32:06.241Z,97479.75
2022-12-29T03:34:34.898Z,97492.59
2022-12-29T03:37:12.273Z,97499.22
2022-12-29T03:39:39.346Z,97506.09
2022-12-29T03:42:13.384Z,97519.03
2022-12-29T03:44:43.871Z,97523.09
2022-12-29T03:47:14.502Z,97513.50
2022-12-29T03:49:41.469Z,97508.25
2022-12-29T03:52:08.156Z,97502.75
2022-12-29T03:54:35.883Z,97495.06
2022-12-29T03:57:05.173Z,97501.50
2022-12-29T03:59:39.378Z,97505.91
2022-12-29T04:02:06.132Z,97496.25
2022-12-29T04:04:32.790Z,97502.19
2022-12-29T04:07:06.699Z,97502.88
2022-12-29T04:09:38.227Z,97493.25
2022-12-29T04:12:05.176Z,97497.78
2022-12-29T04:14:31.775Z,97493.41
2022-12-29T04:17:01.844Z,97483.94
2022-12-29T04:19:28.598Z,97469.31
2022-12-29T04:22:06.297Z,97460.34
2022-12-29T04:24:34.433Z,97458.56
2022-12-29T04:27:06.615Z,97457.19
2022-12-29T04:32:13.582Z,97452.09
2022-12-29T04:34:41.353Z,97443.25
2022-12-29T04:37:07.995Z,97434.50
2022-12-29T04:39:42.973Z,97436.22
2022-12-29T04:42:09.700Z,97438.84
2022-12-29T04:44:41.326Z,97433.59
2022-12-29T04:47:11.469Z,97438.13
2022-12-29T04:49:47.071Z,97438.13
2022-12-29T04:52:13.784Z,97433.63
2022-12-29T04:54:40.888Z,97440.69
2022-12-29T04:57:07.498Z,97436.09
2022-12-29T04:59:34.108Z,97440.56
2022-12-29T05:02:03.349Z,97444.81
2022-12-29T05:04:30.034Z,97452.53
2022-12-29T05:06:56.995Z,97460.09
2022-12-29T05:09:25.019Z,97455.63
2022-12-29T05:11:51.682Z,97460.66
2022-12-29T05:14:18.458Z,97461.72
2022-12-29T05:16:52.846Z,97466.84
2022-12-29T05:19:20.833Z,97454.50
2022-12-29T05:21:47.417Z,97457.47
2022-12-29T05:24:16.597Z,97445.50
2022-12-29T05:26:48.905Z,97453.97
2022-12-29T05:29:15.641Z,97446.75
2022-12-29T05:31:42.446Z,97445.53
2022-12-29T05:34:12.145Z,97466.34
2022-12-29T05:36:40.317Z,97454.06
2022-12-29T05:39:15.984Z,97468.63
2022-12-29T05:41:45.846Z,97469.31
2022-12-29T05:44:13.014Z,97467.19
2022-12-29T05:46:40.218Z,97462.75
2022-12-29T05:49:11.998Z,97448.81
2022-12-29T05:51:38.641Z,97453.06
2022-12-29T05:54:06.273Z,97449.44
2022-12-29T05:56:33.012Z,97450.00
2022-12-29T05:59:00.452Z,97454.22
2022-12-29T06:01:27.227Z,97462.16
2022-12-29T06:03:56.880Z,97470.03
2022-12-29T06:06:23.596Z,97456.06
2022-12-29T06:08:50.262Z,97414.91
2022-12-29T06:11:17.093Z,97439.13
2022-12-29T06:13:45.779Z,97431.94
2022-12-29T06:16:12.501Z,97450.78
2022-12-29T06:18:41.706Z,97450.53
2022-12-29T06:21:09.160Z,97451.09
2022-12-29T06:23:35.988Z,97451.28
2022-12-29T06:26:02.663Z,97445.47
2022-12-29T06:28:43.616Z,97452.94
2022-12-29T06:31:11.732Z,97463.56
2022-12-29T06:33:39.428Z,97455.91
2022-12-29T06:36:06.375Z,97459.31
2022-12-29T06:38:33.157Z,97459.09
2022-12-29T06:41:07.402Z,97468.16
2022-12-29T06:43:35.005Z,97465.47
2022-12-29T06:46:01.621Z,97451.31
2022-12-29T06:48:28.366Z,97470.63
2022-12-29T06:50:55.031Z,97466.56
2022-12-29T06:53:30.785Z,97467.09
2022-12-29T06:55:57.815Z,97462.94
2022-12-29T06:58:24.884Z,97469.94
2022-12-29T07:00:51.679Z,97454.66
2022-12-29T07:03:18.563Z,97442.75
2022-12-29T07:05:45.189Z,97426.44
2022-12-29T07:08:15.136Z,97441.69
2022-12-29T07:10:41.722Z,97448.19
2022-12-29T07:13:08.927Z,97451.31
2022-12-29T07:15:37.690Z,97451.22
2022-12-29T07:18:05.062Z,97450.88
2022-12-29T07:20:39.062Z,97454.97
2022-12-29T07:23:05.699Z,97451.22
2022-12-29T07:25:32.310Z,97461.78
2022-12-29T07:27:59.042Z,97462.47
2022-12-29T07:30:28.118Z,97441.94
2022-12-29T07:33:02.235Z,97449.75
2022-12-29T07:35:28.839Z,97442.53
2022-12-29T07:37:55.541Z,97430.19
2022-12-29T07:40:22.217Z,97448.03
2022-12-29T07:42:49.020Z,97460.94
2022-12-29T07:45:17.924Z,97452.38
2022-12-29T07:47:45.913Z,97459.00
2022-12-29T07:50:12.856Z,97459.09
2022-12-29T07:52:39.721Z,97463.69
2022-12-29T07:55:06.996Z,97452.44
2022-12-29T07:57:33.761Z,97466.34
2022-12-29T08:00:00.349Z,97461.66
2022-12-29T08:02:30.925Z,97458.31
2022-12-29T08:04:57.536Z,97453.06
2022-12-29T08:07:24.218Z,97453.19
2022-12-29T08:09:50.798Z,97451.72
2022-12-29T08:12:18.796Z,97454.09
2022-12-29T08:14:52.808Z,97456.41
2022-12-29T08:17:19.442Z,97443.41
2022-12-29T08:19:46.215Z,97446.81
2022-12-29T08:22:14.686Z,97451.34
2022-12-29T08:24:41.377Z,97432.09
2022-12-29T08:27:16.117Z,97454.91
2022-12-29T08:29:46.921Z,97463.19
2022-12-29T08:32:13.742Z,97458.53
2022-12-29T08:34:40.424Z,97434.41
2022-12-29T08:37:07.494Z,97433.00
2022-12-29T08:39:41.678Z,97440.16
2022-12-29T08:42:08.398Z,97445.16
2022-12-29T08:44:35.015Z,97447.00
2022-12-29T08:47:01.802Z,97439.28
2022-12-29T08:49:28.513Z,97434.72
2022-12-29T08:52:02.424Z,97427.06
2022-12-29T08:54:29.021Z,97442.59
2022-12-29T08:56:55.780Z,97427.88
2022-12-29T08:59:22.632Z,97443.38
2022-12-29T09:01:52.919Z,97446.94
2022-12-29T09:04:24.734Z,97429.16
2022-12-29T09:06:51.505Z,97429.31
2022-12-29T09:09:18.196Z,97436.28
2022-12-29T09:11:45.451Z,97439.69
2022-12-29T09:14:12.699Z,97429.16
2022-12-29T09:17:05.812Z,97444.16
2022-12-29T09:19:32.614Z,97442.25
2022-12-29T09:22:07.203Z,97443.09
2022-12-29T09:24:33.937Z,97449.34
2022-12-29T09:27:00.584Z,97453.16
2022-12-29T09:29:27.166Z,97448.75
2022-12-29T09:31:53.966Z,97462.00
2022-12-29T09:34:24.286Z,97473.50
2022-12-29T09:36:50.933Z,97461.28
2022-12-29T09:39:17.598Z,97467.25
2022-12-29T09:42:12.614Z,97484.28
2022-12-29T09:45:16.770Z,97471.91
2022-12-29T09:47:46.127Z,97473.34
2022-12-29T09:50:25.749Z,97460.41
2022-12-29T09:53:08.207Z,97453.56
2022-12-29T09:55:48.902Z,97452.72
2022-12-29T09:58:26.283Z,97446.19
2022-12-29T10:01:14.216Z,97460.94
2022-12-29T10:03:50.325Z,97446.81
2022-12-29T10:06:27.899Z,97449.94
2022-12-29T10:09:13.077Z,97459.28
2022-12-29T10:11:45.727Z,97445.22
2022-12-29T10:14:28.511Z,97453.94
2022-12-29T10:17:33.051Z,97467.19
2022-12-29T10:20:25.033Z,97459.06
2022-12-29T10:23:09.904Z,97461.66
2022-12-29T10:25:41.889Z,97453.75
2022-12-29T10:28:20.212Z,97467.47
2022-12-29T10:30:49.555Z,97464.22
2022-12-29T10:33:20.922Z,97473.88
2022-12-29T10:35:48.995Z,97462.28
2022-12-29T10:38:43.657Z,97463.72
2022-12-29T10:41:18.172Z,97469.25
2022-12-29T10:44:00.847Z,97465.50
2022-12-29T10:46:37.650Z,97464.81
2022-12-29T10:49:05.706Z,97474.66
2022-12-29T10:51:43.780Z,97478.31
2022-12-29T10:54:37.451Z,97467.97
2022-12-29T10:57:11.528Z,97462.44
2022-12-29T10:59:38.860Z,97461.25
2022-12-29T11:02:32.635Z,97463.22
2022-12-29T11:05:05.226Z,97454.97
2022-12-29T11:07:34.581Z,97447.53
2022-12-29T11:10:21.845Z,97463.47
2022-12-29T11:13:04.456Z,97466.66
2022-12-29T11:15:42.671Z,97463.75
2022-12-29T11:18:22.081Z,97467.78
2022-12-29T11:20:53.527Z,97468.69
2022-12-29T11:23:45.778Z,97475.97
2022-12-29T11:26:12.373Z,97456.88
2022-12-29T11:28:40.584Z,97463.31
2022-12-29T11:31:08.575Z,97463.59
2022-12-29T11:33:38.179Z,97467.16
2022-12-29T11:36:05.018Z,97460.38
2022-12-29T11:38:37.809Z,97466.72
2022-12-29T11:41:12.524Z,97464.59
2022-12-29T11:43:44.478Z,97477.25
2022-12-29T11:46:35.832Z,97462.81
2022-12-29T11:49:03.169Z,97473.59
2022-12-29T11:51:35.635Z,97458.09
2022-12-29T11:54:23.873Z,97456.41
2022-12-29T11:56:52.568Z,97456.53
2022-12-29T11:59:39.031Z,97455.63
2022-12-29T12:02:40.501Z,97466.31
2022-12-29T12:05:19.851Z,97469.56
2022-12-29T12:08:03.426Z,97468.16
2022-12-29T12:10:47.759Z,97466.66
2022-12-29T12:13:23.583Z,97472.91
2022-12-29T12:16:18.266Z,97465.50
2022-12-29T12:18:56.079Z,97464.50
2022-12-29T12:21:44.859Z,97463.38
2022-12-29T12:24:24.353Z,97460.84
2022-12-29T12:27:11.104Z,97475.03
2022-12-29T12:29:52.683Z,97472.03
2022-12-29T12:32:38.988Z,97473.34
2022-12-29T12:35:05.935Z,97469.00
2022-12-29T12:38:03.806Z,97468.47
2022-12-29T12:40:40.999Z,97448.63
2022-12-29T12:43:26.494Z,97450.41
2022-12-29T12:46:02.521Z,97469.75
2022-12-29T12:48:51.071Z,97472.31
2022-12-29T12:51:42.171Z,97472.09
2022-12-29T12:54:31.309Z,97474.28
2022-12-29T12:57:09.757Z,97471.78
2022-12-29T12:59:50.469Z,97463.63
2022-12-29T13:02:29.569Z,97463.94
2022-12-29T13:05:33.982Z,97470.81
2022-12-29T13:08:14.876Z,97474.00
2022-12-29T13:10:41.521Z,97476.09
2022-12-29T13:13:19.315Z,97487.03
2022-12-29T13:16:01.488Z,97485.19
2022-12-29T13:19:00.360Z,97488.28
2022-12-29T13:21:57.454Z,97480.88
2022-12-29T13:25:01.004Z,97490.53
2022-12-29T13:27:39.267Z,97498.50
2022-12-29T13:30:18.484Z,97496.50
2022-12-29T13:33:20.956Z,97521.03
2022-12-29T13:35:55.558Z,97502.88
2022-12-29T13:38:40.291Z,97504.59
2022-12-29T13:41:15.134Z,97507.28
2022-12-29T13:43:45.445Z,97506.41
2022-12-29T13:46:29.728Z,97514.28
2022-12-29T13:49:18.161Z,97511.75
2022-12-29T13:51:58.443Z,97528.81
2022-12-29T13:54:56.933Z,97521.84
2022-12-29T13:57:58.989Z,97521.06
2022-12-29T14:00:31.621Z,97523.72
2022-12-29T14:03:29.804Z,97534.47
2022-12-29T14:06:16.599Z,97533.59
2022-12-29T14:08:44.957Z,97533.78
2022-12-29T14:11:15.464Z,97534.94
2022-12-29T14:13:47.699Z,97540.56
2022-12-29T14:16:32.639Z,97550.50
2022-12-29T14:19:29.977Z,97559.94
2022-12-29T14:22:06.682Z,97564.41
2022-12-29T14:24:36.370Z,97568.81
2022-12-29T14:27:22.914Z,97570.63
2022-12-29T14:29:51.676Z,97577.94
2022-12-29T14:32:26.986Z,97576.38
2022-12-29T14:35:00.437Z,97585.66
2022-12-29T14:37:32.867Z,97591.00
2022-12-29T14:40:27.990Z,97597.16
2022-12-29T14:42:56.395Z,97598.59
2022-12-29T14:45:37.602Z,97596.13
2022-12-29T14:48:25.244Z,97605.97
2022-12-29T14:51:00.031Z,97605.03
2022-12-29T14:53:46.621Z,97601.94
2022-12-29T14:56:16.266Z,97618.69
2022-12-29T14:58:51.611Z,97625.41
2022-12-29T15:01:30.498Z,97624.78
2022-12-29T15:04:02.334Z,97620.81
2022-12-29T15:06:33.217Z,97611.47
2022-12-29T15:09:30.782Z,97615.22
2022-12-29T15:12:11.168Z,97612.00
2022-12-29T15:14:50.373Z,97617.03
2022-12-29T15:17:32.188Z,97621.41
2022-12-29T15:20:01.973Z,97617.47
2022-12-29T15:22:33.440Z,97622.72
2022-12-29T15:25:07.578Z,97631.50
2022-12-29T15:27:34.251Z,97640.50
2022-12-29T15:30:03.540Z,97630.38
2022-12-29T15:32:48.507Z,97639.69
2022-12-29T15:35:29.351Z,97642.91
2022-12-29T15:37:55.991Z,97648.09
2022-12-29T15:40:31.303Z,97645.03
2022-12-29T15:43:19.827Z,97655.88
2022-12-29T15:45:46.563Z,97659.50
2022-12-29T15:48:20.503Z,97655.63
2022-12-29T15:50:47.225Z,97656.94
2022-12-29T15:53:25.790Z,97656.84
2022-12-29T15:55:54.957Z,97658.88
2022-12-29T15:58:29.032Z,97662.78
2022-12-29T16:00:58.966Z,97661.16
2022-12-29T16:03:28.637Z,97665.81
2022-12-29T16:05:58.458Z,97666.91
2022-12-29T16:08:33.938Z,97659.72
2022-12-29T16:11:19.251Z,97672.13
2022-12-29T16:13:45.886Z,97670.69
2022-12-29T16:16:23.686Z,97670.88
2022-12-29T16:18:57.339Z,97670.50
2022-12-29T16:21:32.444Z,97665.81
2022-12-29T16:24:03.699Z,97672.94
2022-12-29T16:26:30.520Z,97664.75
2022-12-29T16:28:59.624Z,97667.53
2022-12-29T16:31:38.194Z,97652.81
2022-12-29T16:34:14.610Z,97642.34
2022-12-29T16:36:56.463Z,97646.03
2022-12-29T16:39:36.903Z,97651.72
2022-12-29T16:42:51.336Z,97648.13
2022-12-29T16:45:21.828Z,97648.88
2022-12-29T16:48:09.860Z,97651.78
2022-12-29T16:50:42.509Z,97667.56
2022-12-29T16:53:25.529Z,97661.16
2022-12-29T16:55:54.468Z,97657.22
2022-12-29T16:58:25.180Z,97651.69
2022-12-29T17:00:56.577Z,97664.84
2022-12-29T17:03:29.175Z,97656.06
2022-12-29T17:05:57.772Z,97659.50
2022-12-29T17:08:24.539Z,97655.00
2022-12-29T17:11:12.197Z,97644.91
2022-12-29T17:13:39.644Z,97652.81
2022-12-29T17:16:08.551Z,97660.41
2022-12-29T17:18:35.545Z,97657.56
2022-12-29T17:21:02.620Z,97661.09
2022-12-29T17:23:32.617Z,97661.72
2022-12-29T17:26:03.119Z,97669.31
2022-12-29T17:28:33.126Z,97670.22
2022-12-29T17:31:03.281Z,97675.13
2022-12-29T17:33:35.771Z,97670.03
2022-12-29T17:36:02.436Z,97674.00
2022-12-29T17:38:31.551Z,97675.53
2022-12-29T17:40:59.294Z,97672.13
2022-12-29T17:43:30.201Z,97680.41
2022-12-29T17:46:01.977Z,97678.81
2022-12-29T17:48:29.023Z,97679.53
2022-12-29T17:50:58.541Z,97677.47
2022-12-29T17:53:31.338Z,97685.56
2022-12-29T17:55:58.925Z,97685.47
2022-12-29T17:58:31.748Z,97684.78
2022-12-29T18:01:03.765Z,97683.56
2022-12-29T18:03:34.473Z,97678.47
2022-12-29T18:06:02.629Z,97673.53
2022-12-29T18:08:29.618Z,97679.66
2022-12-29T18:10:59.907Z,97683.09
2022-12-29T18:13:41.874Z,97686.63
2022-12-29T18:16:12.918Z,97687.06
2022-12-29T18:18:39.690Z,97694.25
2022-12-29T18:21:06.889Z,97696.00
2022-12-29T18:23:45.342Z,97695.63
2022-12-29T18:26:41.892Z,97692.19
2022-12-29T18:29:08.851Z,97690.16
2022-12-29T18:31:36.901Z,97700.69
2022-12-29T18:34:14.200Z,97697.72
2022-12-29T18:36:40.970Z,97696.53
2022-12-29T18:39:07.585Z,97704.63
2022-12-29T18:44:33.288Z,97697.00
2022-12-29T18:47:08.617Z,97703.94
2022-12-29T18:49:35.280Z,97705.09
2022-12-29T18:52:30.301Z,97707.59
2022-12-29T18:55:02.831Z,97702.50
2022-12-29T18:57:31.605Z,97705.66
2022-12-29T18:59:59.212Z,97702.63
2022-12-29T19:02:27.863Z,97696.88
2022-12-29T19:05:00.886Z,97693.75
2022-12-29T19:07:30.966Z,97691.22
2022-12-29T19:10:06.228Z,97691.25
2022-12-29T19:12:32.895Z,97695.69
2022-12-29T19:15:20.437Z,97694.19
2022-12-29T19:18:43.110Z,97705.03
2022-12-29T19:21:12.493Z,97702.78
2022-12-29T19:23:40.651Z,97706.22
2022-12-29T19:26:09.199Z,97708.94
2022-12-29T19:28:59.856Z,97719.75
2022-12-29T19:31:26.629Z,97715.25
2022-12-29T19:33:59.364Z,97698.09
2022-12-29T19:36:35.576Z,97700.59
2022-12-29T19:39:02.369Z,97702.41
2022-12-29T19:41:29.081Z,97702.44
2022-12-29T19:44:19.674Z,97715.47
2022-12-29T19:47:04.344Z,97712.75
2022-12-29T19:49:31.228Z,97722.38
2022-12-29T19:52:11.315Z,97727.72
2022-12-29T19:54:38.460Z,97730.38
2022-12-29T19:57:05.451Z,97724.50
2022-12-29T19:59:32.562Z,97729.84
2022-12-29T20:02:00.745Z,97725.75
2022-12-29T20:04:36.699Z,97728.88
2022-12-29T20:07:03.511Z,97722.88
2022-12-29T20:09:30.253Z,97733.91
2022-12-29T20:11:57.419Z,97733.53
2022-12-29T20:14:24.463Z,97731.72
2022-12-29T20:17:10.235Z,97740.78
2022-12-29T20:20:07.258Z,97743.84
2022-12-29T20:22:34.399Z,97735.56
2022-12-29T20:25:34.595Z,97748.28
2022-12-29T20:27:47.954Z,97752.97
2022-12-29T20:30:14.529Z,97756.38
2022-12-29T20:32:43.881Z,97759.97
2022-12-29T20:35:12.635Z,97760.31
2022-12-29T20:37:39.478Z,97761.22
2022-12-29T20:40:08.681Z,97768.13
2022-12-29T20:42:37.396Z,97769.06
2022-12-29T20:45:13.412Z,97762.09
2022-12-29T20:47:40.304Z,97765.72
2022-12-29T20:50:09.307Z,97755.47
2022-12-29T20:52:36.045Z,97757.84
2022-12-29T20:55:05.476Z,97766.03
2022-12-29T20:57:57.099Z,97773.94
2022-12-29T21:00:22.779Z,97780.81
2022-12-29T21:03:02.158Z,97785.84
2022-12-29T21:05:29.394Z,97782.69
2022-12-29T21:07:56.759Z,97788.69
2022-12-29T21:10:27.570Z,97781.66
2022-12-29T21:12:57.702Z,97786.91
2022-12-29T21:15:24.417Z,97796.09
2022-12-29T21:17:51.213Z,97792.78
2022-12-29T21:20:30.103Z,97793.63
2022-12-29T21:22:58.007Z,97790.16
2022-12-29T21:25:24.618Z,97803.19
2022-12-29T21:27:51.442Z,97811.03
2022-12-29T21:30:18.423Z,97805.00
2022-12-29T21:32:45.323Z,97816.66
2022-12-29T21:35:12.746Z,97822.50
2022-12-29T21:37:40.165Z,97820.00
2022-12-29T21:40:07.241Z,97816.47
2022-12-29T21:42:34.385Z,97809.38
2022-12-29T21:45:21.173Z,97808.44
2022-12-29T21:48:07.759Z,97807.81
2022-12-29T21:50:58.179Z,97811.94
2022-12-29T21:53:38.195Z,97814.63
2022-12-29T21:56:11.008Z,97816.34
2022-12-29T21:58:57.415Z,97819.19
2022-12-29T22:01:44.042Z,97812.19
2022-12-29T22:04:34.659Z,97818.44
2022-12-29T22:07:21.006Z,97826.25
2022-12-29T22:10:06.355Z,97837.47
2022-12-29T22:12:51.923Z,97830.63
2022-12-29T22:15:19.172Z,97841.97
2022-12-29T22:17:49.044Z,97846.34
2022-12-29T22:20:17.268Z,97844.63
2022-12-29T22:22:44.122Z,97855.13
2022-12-29T22:25:11.080Z,97850.72
2022-12-29T22:27:37.827Z,97854.22
2022-12-29T22:30:05.793Z,97867.47
2022-12-29T22:32:33.673Z,97861.41
2022-12-29T22:35:18.760Z,97859.75
2022-12-29T22:37:45.994Z,97865.84
2022-12-29T22:40:13.057Z,97874.56
2022-12-29T22:42:40.562Z,97876.16
2022-12-29T22:45:07.907Z,97886.81
2022-12-29T22:47:35.055Z,97889.50
2022-12-29T22:50:03.083Z,97892.03
2022-12-29T22:52:30.209Z,97890.38
2022-12-29T22:55:03.126Z,97890.38
2022-12-29T22:57:34.304Z,97888.75
2022-12-29T23:00:01.056Z,97895.56
2022-12-29T23:02:28.266Z,97900.59
2022-12-29T23:05:04.401Z,97894.50
2022-12-29T23:07:32.702Z,97900.66
2022-12-29T23:09:59.565Z,97899.13
2022-12-29T23:12:29.863Z,97893.78
2022-12-29T23:14:56.419Z,97892.97
2022-12-29T23:17:24.423Z,97892.16
2022-12-29T23:19:51.110Z,97891.97
2022-12-29T23:22:17.618Z,97884.94
2022-12-29T23:24:44.170Z,97888.63
2022-12-29T23:27:11.009Z,97898.88
2022-12-29T23:29:37.593Z,97899.13
2022-12-29T23:32:04.203Z,97902.53
2022-12-29T23:34:30.776Z,97905.25
2022-12-29T23:36:57.435Z,97900.81
2022-12-29T23:39:24.601Z,97912.09
2022-12-29T23:41:51.740Z,97909.69
2022-12-29T23:44:18.505Z,97910.56
2022-12-29T23:46:45.310Z,97917.53
2022-12-29T23:49:12.229Z,97923.56
2022-12-29T23:51:39.098Z,97915.44
2022-12-29T23:54:05.912Z,97924.44
2022-12-29T23:56:34.929Z,97926.28
2022-12-29T23:59:04.895Z,97941.00
